Time;durP1;ratioP1;P1;durP2;ratioP2;P2;SDS_P1;SDS_P2;PMS_P1;PMS_P2;Temp;Humidity;BMP_temperature;BMP_pressure;BME280_temperature;BME280_humidity;BME280_pressure;Samples;Min_cycle;Max_cycle;Signal;HPM_P1;HPM_P2
2020/12/28 13:51:09;;;;;;;;;;;;;;;;;;;;;
2020/12/28 13:53:36;;;;;;;6.72;4.43;;;;;;;9.79;49.38;94466.97;5030903;28;20236;-80
2020/12/28 13:56:02;;;;;;;6.97;5.07;;;;;;;8.87;50.53;94470.28;5014200;28;20324;-81
2020/12/28 13:58:29;;;;;;;7.07;4.60;;;;;;;8.13;52.08;94476.00;5009589;28;290588;-81
2020/12/28 14:00:56;;;;;;;5.70;4.43;;;;;;;7.56;53.69;94478.31;5008198;28;20305;-81
2020/12/28 14:03:23;;;;;;;5.88;4.38;;;;;;;6.97;54.90;94478.00;5009556;28;20243;-81
2020/12/28 14:05:50;;;;;;;6.50;4.50;;;;;;;6.54;55.94;94477.19;5001434;28;20273;-80
2020/12/28 14:08:18;;;;;;;7.10;4.80;;;;;;;6.15;56.90;94456.13;5013235;28;20250;-79
2020/12/28 14:10:48;;;;;;;7.22;5.10;;;;;;;5.85;57.48;94461.97;5014213;28;20219;-81
2020/12/28 14:13:14;;;;;;;9.25;5.20;;;;;;;5.53;58.55;94465.31;5013279;28;20219;-83
2020/12/28 14:15:41;;;;;;;7.93;4.93;;;;;;;5.30;59.19;94463.69;5010611;28;20270;-82
2020/12/28 14:18:07;;;;;;;5.60;4.63;;;;;;;5.08;59.54;94465.31;5010924;28;20608;-81
2020/12/28 14:20:34;;;;;;;7.60;4.37;;;;;;;4.92;60.47;94459.66;5012901;28;20211;-81
2020/12/28 14:23:00;;;;;;;6.77;4.77;;;;;;;4.74;60.98;94452.34;5011140;28;20249;-80
2020/12/28 14:25:26;;;;;;;7.87;4.90;;;;;;;4.56;61.28;94446.81;5009773;28;20241;-79
2020/12/28 14:27:53;;;;;;;6.80;5.20;;;;;;;4.40;61.57;94439.34;5011481;28;20219;-82
2020/12/28 14:30:19;;;;;;;7.10;4.73;;;;;;;4.28;62.62;94442.81;5013709;28;20215;-82
2020/12/28 14:32:45;;;;;;;7.47;4.57;;;;;;;4.14;62.87;94423.22;5014251;28;20293;-81
2020/12/28 14:35:12;;;;;;;7.17;4.63;;;;;;;4.05;63.54;94423.88;5015446;28;20278;-81
2020/12/28 14:37:39;;;;;;;8.17;5.10;;;;;;;3.99;63.44;94430.31;5014958;28;20547;-79
2020/12/28 14:40:05;;;;;;;6.87;5.03;;;;;;;3.94;63.51;94441.88;5013803;28;20215;-81
2020/12/28 14:42:31;;;;;;;13.37;8.90;;;;;;;3.89;64.05;94437.03;5014510;28;20218;-79
2020/12/28 14:44:58;;;;;;;15.63;11.43;;;;;;;3.90;64.20;94441.28;5014395;28;20426;-81
2020/12/28 14:47:25;;;;;;;8.13;5.10;;;;;;;3.88;64.83;94448.31;5014408;28;20247;-82
2020/12/28 14:49:52;;;;;;;7.57;5.40;;;;;;;3.86;64.52;94455.31;5014959;28;20226;-82
2020/12/28 14:52:18;;;;;;;9.10;5.17;;;;;;;3.83;64.73;94460.69;4996575;28;20265;-80
2020/12/28 14:54:45;;;;;;;8.20;5.07;;;;;;;3.83;65.20;94465.84;5014313;28;20337;-80
2020/12/28 14:57:11;;;;;;;8.87;5.20;;;;;;;3.85;65.27;94469.13;5009535;28;20214;-81
2020/12/28 14:59:37;;;;;;;7.97;5.10;;;;;;;3.83;65.15;94471.00;5000976;28;20618;-81
2020/12/28 15:02:04;;;;;;;7.97;4.90;;;;;;;3.81;65.57;94473.69;4998592;28;20668;-82
2020/12/28 15:04:30;;;;;;;7.83;5.03;;;;;;;3.80;65.88;94474.59;4998878;28;20603;-82
2020/12/28 15:06:56;;;;;;;7.07;4.60;;;;;;;3.78;66.03;94467.91;4999852;28;20271;-81
2020/12/28 15:09:23;;;;;;;6.50;3.97;;;;;;;3.78;66.73;94462.75;4998637;28;20224;-81
2020/12/28 15:11:50;;;;;;;7.07;4.20;;;;;;;3.75;67.62;94463.81;4992753;28;20266;-81
2020/12/28 15:14:16;;;;;;;8.57;4.17;;;;;;;3.73;68.00;94464.84;4995202;28;20236;-81
2020/12/28 15:16:42;;;;;;;8.27;4.73;;;;;;;3.73;67.86;94470.00;4995097;28;20226;-80
2020/12/28 15:19:08;;;;;;;9.03;5.10;;;;;;;3.74;68.09;94466.50;4996458;28;20219;-82
2020/12/28 15:21:34;;;;;;;7.83;5.10;;;;;;;3.68;67.95;94462.59;4996404;28;20212;-81
2020/12/28 15:24:01;;;;;;;7.27;5.00;;;;;;;3.69;67.96;94476.28;4996151;28;20320;-81
2020/12/28 15:26:27;;;;;;;8.67;5.53;;;;;;;3.66;68.23;94475.59;4993382;28;20239;-80
2020/12/28 15:28:54;;;;;;;7.47;4.90;;;;;;;3.67;68.55;94472.06;4997923;28;20667;-80
2020/12/28 15:31:21;;;;;;;7.73;5.20;;;;;;;3.68;68.32;94478.06;4998873;28;20249;-80
2020/12/28 15:33:47;;;;;;;30.00;19.80;;;;;;;3.67;68.96;94482.38;4996800;28;20219;-79
2020/12/28 15:36:14;;;;;;;12.17;7.40;;;;;;;3.64;69.25;94482.59;4997595;28;20681;-79
2020/12/28 15:38:40;;;;;;;9.43;6.60;;;;;;;3.59;69.51;94487.25;4998247;28;20230;-81
2020/12/28 15:41:07;;;;;;;8.80;5.93;;;;;;;3.57;69.39;94499.41;4996123;28;20219;-82
2020/12/28 15:43:33;;;;;;;9.60;6.00;;;;;;;3.57;69.58;94507.16;4997954;28;20686;-79
2020/12/28 15:46:00;;;;;;;9.17;6.37;;;;;;;3.53;70.02;94510.88;4999555;28;20245;-79
2020/12/28 15:48:27;;;;;;;11.40;7.20;;;;;;;3.48;70.00;94511.16;4998111;28;20215;-79
2020/12/28 15:50:55;;;;;;;11.60;7.40;;;;;;;3.44;70.07;94501.19;4998796;28;20231;-81
2020/12/28 15:53:22;;;;;;;12.00;6.80;;;;;;;3.41;70.48;94506.56;4997281;28;20220;-80
2020/12/28 15:55:48;;;;;;;9.80;6.67;;;;;;;3.40;70.78;94499.75;4996833;28;20243;-80
2020/12/28 15:58:14;;;;;;;10.77;6.57;;;;;;;3.39;70.69;94498.09;4998185;28;20282;-82
2020/12/28 16:00:41;;;;;;;11.00;7.10;;;;;;;3.39;71.03;94508.41;4998064;28;20222;-81
2020/12/28 16:03:08;;;;;;;12.63;7.73;;;;;;;3.35;71.26;94502.66;4996769;28;20227;-81
2020/12/28 16:05:34;;;;;;;13.50;8.97;;;;;;;3.36;71.43;94503.47;4996445;28;20239;-80
2020/12/28 16:08:01;;;;;;;12.13;8.57;;;;;;;3.34;71.52;94506.13;4995230;28;20226;-81
2020/12/28 16:10:27;;;;;;;11.17;7.83;;;;;;;3.34;72.03;94510.47;4998087;28;20224;-79
2020/12/28 16:12:54;;;;;;;10.73;6.90;;;;;;;3.32;71.94;94502.84;4997893;28;20238;-81
2020/12/28 16:15:20;;;;;;;10.67;7.10;;;;;;;3.30;71.95;94504.72;4999688;28;20342;-82
2020/12/28 16:17:46;;;;;;;42.33;27.33;;;;;;;3.28;72.22;94502.22;4997155;28;20219;-82
2020/12/28 16:20:13;;;;;;;43.43;31.00;;;;;;;3.28;72.35;94497.06;4996447;28;20211;-81
2020/12/28 16:22:40;;;;;;;15.03;10.50;;;;;;;3.29;72.77;94513.38;4998241;28;20306;-81
2020/12/28 16:25:07;;;;;;;12.50;7.77;;;;;;;3.31;72.58;94510.66;4998532;28;20338;-81
2020/12/28 16:27:35;;;;;;;11.57;7.33;;;;;;;3.30;72.71;94509.84;4994951;28;20703;-81
2020/12/28 16:30:02;;;;;;;11.67;7.20;;;;;;;3.32;72.74;94517.47;4999910;28;20265;-81
2020/12/28 16:32:28;;;;;;;11.10;7.10;;;;;;;3.34;73.28;94520.78;4998083;28;20787;-81
2020/12/28 16:34:54;;;;;;;12.70;8.63;;;;;;;3.33;72.91;94522.53;4995858;28;20314;-81
2020/12/28 16:37:22;;;;;;;12.73;8.00;;;;;;;3.31;73.61;94519.25;4996591;28;20220;-82
2020/12/28 16:39:48;;;;;;;15.03;8.40;;;;;;;3.32;73.32;94523.44;4998314;28;20222;-80
2020/12/28 16:42:14;;;;;;;11.33;7.63;;;;;;;3.32;73.62;94527.78;4997946;28;20780;-80
2020/12/28 16:44:41;;;;;;;11.63;8.27;;;;;;;3.29;73.78;94533.97;4993348;28;20243;-82
2020/12/28 16:47:08;;;;;;;13.43;8.17;;;;;;;3.28;73.98;94545.19;4994944;28;20247;-80
2020/12/28 16:49:35;;;;;;;12.20;7.90;;;;;;;3.25;74.09;94543.66;4997234;28;20310;-80
2020/12/28 16:52:01;;;;;;;13.73;8.20;;;;;;;3.28;73.86;94548.59;4997254;28;20314;-80
2020/12/28 16:54:30;;;;;;;10.87;7.70;;;;;;;3.27;74.20;94549.53;4995670;28;20235;-80
2020/12/28 16:56:56;;;;;;;12.10;8.50;;;;;;;3.28;74.21;94552.91;4998670;28;20316;-80
2020/12/28 16:59:23;;;;;;;13.97;9.20;;;;;;;3.27;74.54;94558.97;4998350;28;20223;-82
2020/12/28 17:01:51;;;;;;;18.27;10.33;;;;;;;3.26;74.57;94565.91;4997067;28;20215;-81
2020/12/28 17:04:17;;;;;;;14.93;9.33;;;;;;;3.27;74.19;94570.13;4997446;28;20243;-81
2020/12/28 17:06:44;;;;;;;12.53;8.33;;;;;;;3.30;74.79;94573.44;4996951;28;20231;-80
2020/12/28 17:09:12;;;;;;;11.43;8.20;;;;;;;3.31;74.55;94573.31;4998442;28;20266;-80
2020/12/28 17:11:39;;;;;;;12.77;8.00;;;;;;;3.33;75.15;94575.78;4998613;28;20211;-80
2020/12/28 17:14:06;;;;;;;12.67;8.20;;;;;;;3.31;74.73;94568.19;4997117;28;20229;-80
2020/12/28 17:16:32;;;;;;;11.80;8.47;;;;;;;3.34;74.71;94567.13;4996496;28;20518;-80
2020/12/28 17:18:58;;;;;;;12.20;8.97;;;;;;;3.33;74.58;94562.91;4994529;28;20223;-80
2020/12/28 17:21:25;;;;;;;11.60;8.00;;;;;;;3.36;75.11;94560.13;4997718;28;20211;-81
2020/12/28 17:23:51;;;;;;;15.47;9.53;;;;;;;3.35;74.93;94568.78;4995698;28;20756;-82
2020/12/28 17:41:49;;;;;;;18.50;9.23;;;;;;;3.39;75.47;94588.25;5910298;23;20231;-81
2020/12/28 17:44:15;;;;;;;13.30;9.60;;;;;;;3.39;75.42;94590.84;4980507;28;20699;-80
2020/12/28 17:46:42;;;;;;;13.47;8.20;;;;;;;3.42;75.40;94595.78;4978656;28;20318;-82
2020/12/28 17:49:08;;;;;;;16.13;10.67;;;;;;;3.45;75.40;94595.56;4980925;28;20426;-80
2020/12/28 17:51:35;;;;;;;16.93;9.80;;;;;;;3.43;75.83;94602.56;4978421;28;20559;-80
2020/12/28 17:54:01;;;;;;;18.43;13.40;;;;;;;3.42;75.79;94604.34;4978072;28;20246;-81
2020/12/28 17:56:27;;;;;;;16.53;11.70;;;;;;;3.43;75.58;94607.72;4976185;28;20274;-79
2020/12/28 17:58:55;;;;;;;17.40;9.93;;;;;;;3.42;75.78;94596.63;4979901;28;20676;-81
2020/12/28 18:01:23;;;;;;;16.67;11.20;;;;;;;3.42;75.81;94606.91;4981850;28;20265;-81
2020/12/28 18:03:50;;;;;;;18.23;14.20;;;;;;;3.42;76.29;94606.91;4978241;28;20374;-81
2020/12/28 18:06:17;;;;;;;21.87;13.80;;;;;;;3.41;76.04;94600.09;4979756;28;20336;-83
2020/12/28 18:08:44;;;;;;;15.03;9.40;;;;;;;3.41;75.96;94604.44;4980257;28;20230;-81
2020/12/28 18:11:10;;;;;;;13.57;9.17;;;;;;;3.34;76.20;94603.19;4978071;28;20620;-82
2020/12/28 18:13:37;;;;;;;15.23;9.87;;;;;;;3.35;76.46;94604.84;4975809;28;20443;-83
2020/12/28 18:16:07;;;;;;;17.80;11.17;;;;;;;3.34;76.28;94604.00;4976676;28;20255;-82
2020/12/28 18:18:33;;;;;;;14.13;9.97;;;;;;;3.28;76.47;94592.38;4978635;28;20270;-82
2020/12/28 18:20:59;;;;;;;14.27;10.00;;;;;;;3.20;76.62;94607.53;4981141;28;20212;-80
2020/12/28 18:23:26;;;;;;;13.40;8.87;;;;;;;3.19;76.79;94605.84;4977739;28;20223;-81
2020/12/28 18:25:52;;;;;;;16.47;11.07;;;;;;;3.15;77.03;94604.41;4988305;23;20339;-81
2020/12/28 18:28:18;;;;;;;11.47;9.33;;;;;;;3.12;77.30;94607.19;4979300;28;20217;-81
2020/12/28 18:30:45;;;;;;;11.67;8.93;;;;;;;3.13;77.31;94601.13;4978854;28;20222;-81
2020/12/28 18:33:17;;;;;;;15.37;9.93;;;;;;;3.14;76.84;94602.75;4963420;28;20226;-81
2020/12/28 18:35:44;;;;;;;17.70;9.67;;;;;;;3.18;76.87;94611.94;4983542;28;20417;-80
2020/12/28 18:38:10;;;;;;;14.17;10.00;;;;;;;3.23;77.02;94606.47;4977903;28;20212;-81
2020/12/28 18:40:37;;;;;;;19.30;11.90;;;;;;;3.23;77.33;94607.28;4984782;28;20230;-81
2020/12/28 18:43:03;;;;;;;14.90;10.50;;;;;;;3.23;77.21;94602.16;4980517;28;20223;-82
2020/12/28 18:45:30;;;;;;;17.57;11.10;;;;;;;3.24;77.30;94605.56;4982193;28;20362;-81
2020/12/28 18:47:56;;;;;;;13.60;10.33;;;;;;;3.19;76.92;94603.28;4983739;28;20244;-82
2020/12/28 18:50:26;;;;;;;15.57;10.47;;;;;;;3.17;77.22;94607.72;4979941;28;20590;-81
2020/12/28 18:52:52;;;;;;;20.90;13.27;;;;;;;3.18;77.65;94609.38;4984592;28;20223;-80
2020/12/28 19:13:26;;;;;;;14.40;10.60;;;;;;;3.09;77.43;94595.34;6058159;23;21482;-81
2020/12/28 19:15:52;;;;;;;17.23;11.47;;;;;;;3.09;77.36;94597.91;4982313;28;20870;-81
2020/12/28 19:18:18;;;;;;;17.67;10.70;;;;;;;3.08;77.23;94598.03;4980127;28;20961;-81
2020/12/28 19:20:45;;;;;;;13.17;10.30;;;;;;;3.08;77.44;94595.44;4982703;28;20219;-81
2020/12/28 19:23:11;;;;;;;14.07;10.50;;;;;;;3.07;77.41;94601.53;4981076;28;20243;-80
2020/12/28 19:25:37;;;;;;;18.50;11.30;;;;;;;3.03;77.44;94594.91;4980518;28;20817;-80
2020/12/28 19:28:03;;;;;;;17.30;10.53;;;;;;;3.00;77.35;94590.00;4979540;28;20239;-82
2020/12/28 19:30:33;;;;;;;15.30;11.00;;;;;;;2.99;77.51;94593.47;4980421;28;20319;-82
2020/12/28 19:33:04;;;;;;;14.57;10.30;;;;;;;3.00;77.39;94584.84;4980327;28;20621;-82
2020/12/28 19:35:30;;;;;;;21.93;12.73;;;;;;;2.99;77.69;94589.13;5261631;23;20247;-81
2020/12/28 19:37:56;;;;;;;13.90;9.70;;;;;;;3.01;77.52;94591.63;4983125;28;20522;-83
2020/12/28 19:40:23;;;;;;;13.57;10.40;;;;;;;3.02;77.51;94598.44;4967346;28;20263;-83
2020/12/28 19:42:49;;;;;;;18.17;10.73;;;;;;;3.02;77.38;94590.72;4982249;28;20223;-81
2020/12/28 19:45:15;;;;;;;16.50;10.77;;;;;;;3.06;77.35;94594.72;4978402;28;20377;-82
2020/12/28 19:47:42;;;;;;;15.10;10.80;;;;;;;3.04;77.32;94588.84;4981052;28;20275;-83
2020/12/28 19:50:09;;;;;;;17.90;11.97;;;;;;;3.06;77.31;94594.72;4981087;28;20247;-81
2020/12/28 19:52:36;;;;;;;17.07;11.37;;;;;;;3.05;77.17;94585.34;4982497;28;20683;-81
2020/12/28 19:55:03;;;;;;;17.37;11.40;;;;;;;3.10;77.10;94580.72;4982017;28;20239;-82
2020/12/28 19:57:29;;;;;;;18.50;11.43;;;;;;;3.10;77.16;94580.72;4981685;28;20317;-83
2020/12/28 20:00:01;;;;;;;17.53;12.30;;;;;;;3.07;77.17;94588.66;4983300;28;20259;-81
2020/12/28 20:02:27;;;;;;;18.70;11.73;;;;;;;3.05;77.18;94588.75;4981354;28;20235;-81
2020/12/28 20:13:31;;;;;;;13.77;10.87;;;;;;;3.04;77.15;94604.31;4945504;28;20246;-82
2020/12/28 20:15:57;;;;;;;17.53;12.33;;;;;;;3.03;77.44;94602.63;4977235;28;20255;-81
2020/12/28 20:18:24;;;;;;;17.00;11.87;;;;;;;3.07;77.48;94609.25;4975726;28;20597;-81
2020/12/28 20:20:50;;;;;;;18.73;11.73;;;;;;;3.08;77.44;94618.63;4978230;28;20219;-83
2020/12/28 20:23:17;;;;;;;15.40;11.50;;;;;;;3.05;77.21;94618.81;4983459;28;20216;-82
2020/12/28 20:25:43;;;;;;;18.87;11.50;;;;;;;3.02;77.25;94619.03;4975508;28;20791;-82
2020/12/28 20:28:10;;;;;;;16.70;12.47;;;;;;;3.07;77.35;94611.84;4977470;28;20258;-81
2020/12/28 20:30:38;;;;;;;19.13;11.70;;;;;;;3.06;77.70;94611.00;4977196;28;20226;-83
2020/12/28 20:33:04;;;;;;;17.80;12.20;;;;;;;3.06;77.31;94607.59;4975088;28;20208;-81
2020/12/28 20:35:30;;;;;;;17.77;12.17;;;;;;;3.04;77.33;94606.88;4975705;28;20240;-82
2020/12/28 20:37:57;;;;;;;16.33;11.80;;;;;;;3.04;77.30;94612.03;4975054;28;20307;-80
2020/12/28 20:40:39;;;;;;;18.17;12.10;;;;;;;3.03;76.86;94610.38;4976804;28;20215;-81
2020/12/28 20:43:11;;;;;;;16.53;11.90;;;;;;;3.00;77.18;94610.59;4976399;28;20295;-82
2020/12/28 20:45:39;;;;;;;17.17;12.60;;;;;;;2.97;77.59;94621.06;4976746;28;20987;-81
2020/12/28 20:48:06;;;;;;;17.80;12.63;;;;;;;2.97;77.54;94615.91;4975543;28;20240;-82
2020/12/28 20:50:32;;;;;;;16.40;11.70;;;;;;;2.96;77.36;94614.25;4977027;28;20227;-81
2020/12/28 20:52:58;;;;;;;18.10;11.67;;;;;;;2.95;77.54;94621.16;4977120;28;20238;-81
2020/12/28 20:55:25;;;;;;;17.27;12.27;;;;;;;2.93;77.44;94614.47;4976664;28;20245;-81
2020/12/28 20:57:51;;;;;;;17.23;12.20;;;;;;;2.89;77.42;94606.94;4976423;28;20216;-82
2020/12/28 21:00:18;;;;;;;16.10;11.80;;;;;;;2.84;77.63;94605.59;4974939;28;20286;-83
2020/12/28 21:02:45;;;;;;;19.63;11.73;;;;;;;2.78;77.56;94601.66;4977141;28;20601;-83
2020/12/28 21:05:12;;;;;;;16.43;11.30;;;;;;;2.68;77.52;94611.75;4975733;28;20244;-83
2020/12/28 21:07:38;;;;;;;18.93;12.40;;;;;;;2.61;77.94;94623.34;4977052;28;20242;-82
2020/12/28 21:10:04;;;;;;;20.43;13.27;;;;;;;2.56;77.95;94632.28;4976512;28;20318;-82
2020/12/28 21:12:31;;;;;;;18.77;12.80;;;;;;;2.50;78.22;94644.59;4976323;28;20236;-83
2020/12/28 21:14:57;;;;;;;21.47;15.37;;;;;;;2.55;78.33;94652.00;4976776;28;20253;-81
2020/12/28 21:17:23;;;;;;;23.13;16.47;;;;;;;2.58;78.12;94644.09;4976775;28;20217;-81
2020/12/28 21:19:51;;;;;;;32.37;19.33;;;;;;;2.63;78.23;94654.94;4977151;28;20219;-81
2020/12/28 21:22:17;;;;;;;23.33;16.63;;;;;;;2.65;78.17;94654.84;4975621;28;20334;-81
2020/12/28 21:24:43;;;;;;;26.03;18.00;;;;;;;2.66;78.29;94653.91;4970994;28;20740;-82
2020/12/28 21:27:10;;;;;;;24.93;16.90;;;;;;;2.61;78.26;94651.66;4972165;28;20401;-81
2020/12/28 21:29:36;;;;;;;26.70;17.93;;;;;;;2.57;78.53;94654.50;4972683;28;20224;-80
2020/12/28 21:32:02;;;;;;;18.00;13.73;;;;;;;2.51;78.41;94643.66;4972220;28;20332;-82
2020/12/28 21:34:29;;;;;;;22.03;14.87;;;;;;;2.41;78.35;94647.75;4972103;28;20552;-81
2020/12/28 21:36:56;;;;;;;20.80;14.37;;;;;;;2.33;78.56;94655.09;4973582;28;20992;-82
2020/12/28 21:39:22;;;;;;;19.37;12.90;;;;;;;2.30;78.60;94663.03;4974366;28;20640;-81
2020/12/28 21:41:49;;;;;;;18.43;13.70;;;;;;;2.21;78.89;94668.72;4974034;28;20223;-81
2020/12/28 21:44:15;;;;;;;21.43;14.07;;;;;;;2.18;78.72;94671.47;4972038;28;20220;-81
2020/12/28 21:46:42;;;;;;;18.93;13.73;;;;;;;2.16;78.85;94670.75;4975632;28;20347;-82
2020/12/28 21:49:08;;;;;;;20.00;13.30;;;;;;;2.10;78.91;94667.63;4973718;28;20221;-81
2020/12/28 21:51:34;;;;;;;19.13;13.53;;;;;;;2.08;79.08;94664.31;4973873;28;20219;-84
2020/12/28 21:54:02;;;;;;;17.20;12.87;;;;;;;2.01;78.96;94657.91;4973208;28;20222;-83
2020/12/28 21:56:28;;;;;;;18.77;12.73;;;;;;;1.97;78.96;94671.88;4974009;28;20673;-82
2020/12/28 21:58:54;;;;;;;16.33;11.87;;;;;;;1.93;79.15;94676.38;4973776;28;20224;-82
2020/12/28 22:01:22;;;;;;;16.37;11.97;;;;;;;1.88;79.28;94667.28;4974317;28;20816;-81
2020/12/28 22:03:48;;;;;;;18.70;13.50;;;;;;;1.89;79.25;94674.06;4973319;28;20208;-81
2020/12/28 22:06:22;;;;;;;19.73;13.17;;;;;;;1.84;79.14;94687.19;4972744;28;20247;-82
2020/12/28 22:08:49;;;;;;;18.20;13.40;;;;;;;1.83;79.27;94687.28;4978122;28;20273;-81
2020/12/28 22:11:16;;;;;;;19.87;13.27;;;;;;;1.81;79.25;94683.97;4975352;28;20361;-84
2020/12/28 22:13:43;;;;;;;18.13;12.70;;;;;;;1.77;79.31;94690.22;4977038;28;20496;-82
2020/12/28 22:16:09;;;;;;;18.43;11.70;;;;;;;1.71;79.48;94697.38;4976567;28;20339;-82
2020/12/28 22:18:36;;;;;;;19.53;12.70;;;;;;;1.65;79.79;94702.03;4975756;28;20926;-82
2020/12/28 22:21:02;;;;;;;19.07;13.73;;;;;;;1.61;79.72;94701.38;4975119;28;21052;-82
2020/12/28 22:23:29;;;;;;;23.20;14.10;;;;;;;1.62;79.92;94702.19;4974517;28;20208;-82
2020/12/28 22:25:55;;;;;;;20.07;13.00;;;;;;;1.59;79.93;94700.66;4975977;28;20323;-80
2020/12/28 22:28:22;;;;;;;19.77;13.43;;;;;;;1.57;79.74;94699.91;4976312;28;20236;-81
2020/12/28 22:30:48;;;;;;;19.23;13.03;;;;;;;1.56;79.69;94702.56;4974972;28;20216;-81
2020/12/28 22:33:15;;;;;;;17.67;12.43;;;;;;;1.50;79.55;94719.16;4978234;28;20430;-81
2020/12/28 22:35:41;;;;;;;16.93;11.90;;;;;;;1.44;79.59;94728.03;4975009;28;20301;-82
2020/12/28 22:38:08;;;;;;;21.40;14.10;;;;;;;1.41;80.14;94729.97;4973090;28;20343;-83
2020/12/28 22:40:35;;;;;;;18.87;13.17;;;;;;;1.41;80.17;94715.38;4983741;28;20259;-82
2020/12/28 22:43:03;;;;;;;18.27;12.57;;;;;;;1.38;79.90;94720.72;4975804;28;20219;-82
2020/12/28 22:45:30;;;;;;;18.83;12.43;;;;;;;1.35;80.08;94729.41;4976594;28;20322;-82
2020/12/28 22:47:56;;;;;;;16.23;11.57;;;;;;;1.35;79.80;94737.09;4976613;28;20237;-83
2020/12/28 22:50:22;;;;;;;16.97;11.53;;;;;;;1.35;79.70;94726.81;4975616;28;20573;-82
2020/12/28 22:52:48;;;;;;;19.03;13.00;;;;;;;1.33;79.97;94720.97;4974913;28;20339;-82
2020/12/28 22:55:15;;;;;;;17.43;12.70;;;;;;;1.34;79.95;94729.47;4975365;28;20244;-81
2020/12/28 22:57:41;;;;;;;20.13;13.60;;;;;;;1.32;80.03;94716.75;4974688;28;20337;-81
2020/12/28 23:00:07;;;;;;;18.63;13.67;;;;;;;1.32;79.85;94700.50;4974931;28;20215;-81
2020/12/28 23:02:35;;;;;;;18.73;12.50;;;;;;;1.32;79.89;94700.50;4971607;28;20498;-82
2020/12/28 23:05:01;;;;;;;18.97;12.97;;;;;;;1.30;80.30;94702.34;4969776;28;20790;-83
2020/12/28 23:07:27;;;;;;;21.37;13.50;;;;;;;1.30;80.14;94707.47;4971444;28;20407;-82
2020/12/28 23:09:53;;;;;;;17.93;13.07;;;;;;;1.31;79.84;94704.00;4969353;28;20216;-82
2020/12/28 23:12:20;;;;;;;18.83;13.37;;;;;;;1.28;79.66;94699.84;4970121;28;20221;-81
2020/12/28 23:14:46;;;;;;;17.70;12.43;;;;;;;1.25;80.26;94710.31;4971811;28;20244;-81
2020/12/28 23:17:12;;;;;;;33.67;14.90;;;;;;;1.23;80.23;94719.00;4970252;28;20217;-81
2020/12/28 23:19:39;;;;;;;19.30;13.23;;;;;;;1.20;80.08;94732.84;4969401;28;20275;-81
2020/12/28 23:22:05;;;;;;;21.30;13.87;;;;;;;1.17;80.41;94745.84;4969623;28;20685;-81
2020/12/28 23:24:32;;;;;;;21.53;13.80;;;;;;;1.14;80.67;94746.03;4971635;28;20270;-81
2020/12/28 23:26:59;;;;;;;18.80;13.50;;;;;;;1.15;80.53;94743.34;4968535;28;20236;-81
2020/12/28 23:29:25;;;;;;;21.70;13.67;;;;;;;1.17;80.65;94738.13;4970463;28;20270;-82
2020/12/28 23:31:52;;;;;;;20.80;13.13;;;;;;;1.21;80.35;94747.31;4968371;28;20350;-81
2020/12/28 23:34:18;;;;;;;21.70;13.00;;;;;;;1.24;80.32;94754.03;4967265;28;20216;-80
2020/12/28 23:36:45;;;;;;;17.27;11.90;;;;;;;1.28;80.58;94751.19;4971976;28;20390;-82
2020/12/28 23:39:12;;;;;;;18.37;12.83;;;;;;;1.36;80.54;94750.78;4966025;28;20226;-83
2020/12/28 23:41:38;;;;;;;17.53;12.40;;;;;;;1.42;80.40;94750.41;4970107;28;20785;-81
2020/12/28 23:44:04;;;;;;;17.37;11.77;;;;;;;1.47;80.40;94757.84;4968142;28;20307;-81
2020/12/28 23:46:31;;;;;;;17.03;12.60;;;;;;;1.50;79.89;94755.13;4968400;28;20244;-82
2020/12/28 23:48:58;;;;;;;17.73;12.13;;;;;;;1.52;79.99;94759.25;4970209;28;20496;-82
2020/12/28 23:51:25;;;;;;;18.33;12.83;;;;;;;1.55;79.84;94755.69;4969091;28;20394;-81
2020/12/28 23:53:52;;;;;;;16.20;12.27;;;;;;;1.54;80.14;94759.16;4968423;28;20222;-81
2020/12/28 23:56:27;;;;;;;15.33;10.97;;;;;;;1.56;79.90;94765.03;4972058;28;20232;-81
2020/12/28 23:58:56;;;;;;;13.07;9.30;;;;;;;1.59;80.09;94758.91;4971303;28;20226;-83
